sensor_id;sensor_type;location;lat;lon;timestamp;P1;durP1;ratioP1;P2;durP2;ratioP2
49860;SDS011;35761;48.826;9.238;2023-07-02T00:02:16;4.05;;;2.75;;
49860;SDS011;35761;48.826;9.238;2023-07-02T00:04:43;10.02;;;2.67;;
49860;SDS011;35761;48.826;9.238;2023-07-02T00:07:09;6.10;;;2.80;;
49860;SDS011;35761;48.826;9.238;2023-07-02T00:09:34;4.43;;;2.53;;
49860;SDS011;35761;48.826;9.238;2023-07-02T00:12:00;5.18;;;2.70;;
49860;SDS011;35761;48.826;9.238;2023-07-02T00:14:25;4.30;;;2.65;;
49860;SDS011;35761;48.826;9.238;2023-07-02T00:16:51;4.65;;;2.92;;
49860;SDS011;35761;48.826;9.238;2023-07-02T00:19:16;8.25;;;3.00;;
49860;SDS011;35761;48.826;9.238;2023-07-02T00:21:42;4.63;;;3.13;;
49860;SDS011;35761;48.826;9.238;2023-07-02T00:24:08;4.72;;;2.58;;
49860;SDS011;35761;48.826;9.238;2023-07-02T00:26:37;5.97;;;2.70;;
49860;SDS011;35761;48.826;9.238;2023-07-02T00:29:10;4.75;;;2.78;;
49860;SDS011;35761;48.826;9.238;2023-07-02T00:31:36;3.83;;;2.63;;
49860;SDS011;35761;48.826;9.238;2023-07-02T00:34:02;5.57;;;3.25;;
49860;SDS011;35761;48.826;9.238;2023-07-02T00:36:28;4.07;;;2.63;;
49860;SDS011;35761;48.826;9.238;2023-07-02T00:38:54;4.22;;;2.90;;
49860;SDS011;35761;48.826;9.238;2023-07-02T00:41:20;4.18;;;2.65;;
49860;SDS011;35761;48.826;9.238;2023-07-02T00:43:45;5.97;;;2.95;;
49860;SDS011;35761;48.826;9.238;2023-07-02T00:46:13;4.30;;;3.15;;
49860;SDS011;35761;48.826;9.238;2023-07-02T00:48:46;4.93;;;2.70;;
49860;SDS011;35761;48.826;9.238;2023-07-02T00:51:13;8.18;;;2.92;;
49860;SDS011;35761;48.826;9.238;2023-07-02T00:53:41;6.47;;;3.03;;
49860;SDS011;35761;48.826;9.238;2023-07-02T00:56:06;7.68;;;2.75;;
49860;SDS011;35761;48.826;9.238;2023-07-02T00:58:33;5.03;;;2.95;;
49860;SDS011;35761;48.826;9.238;2023-07-02T01:01:01;3.63;;;2.40;;
49860;SDS011;35761;48.826;9.238;2023-07-02T01:03:27;6.72;;;2.97;;
49860;SDS011;35761;48.826;9.238;2023-07-02T01:05:54;3.72;;;2.55;;
49860;SDS011;35761;48.826;9.238;2023-07-02T01:08:19;3.42;;;2.45;;
49860;SDS011;35761;48.826;9.238;2023-07-02T01:10:45;6.40;;;2.70;;
49860;SDS011;35761;48.826;9.238;2023-07-02T01:13:14;5.72;;;2.50;;
49860;SDS011;35761;48.826;9.238;2023-07-02T01:15:42;7.40;;;2.58;;
49860;SDS011;35761;48.826;9.238;2023-07-02T01:18:09;5.45;;;2.20;;
49860;SDS011;35761;48.826;9.238;2023-07-02T01:20:35;6.35;;;2.45;;
49860;SDS011;35761;48.826;9.238;2023-07-02T01:23:02;7.38;;;2.40;;
49860;SDS011;35761;48.826;9.238;2023-07-02T01:25:28;4.88;;;2.55;;
49860;SDS011;35761;48.826;9.238;2023-07-02T01:27:55;3.70;;;2.50;;
49860;SDS011;35761;48.826;9.238;2023-07-02T01:30:24;4.35;;;2.53;;
49860;SDS011;35761;48.826;9.238;2023-07-02T01:32:50;3.90;;;2.25;;
49860;SDS011;35761;48.826;9.238;2023-07-02T01:35:16;3.78;;;2.33;;
49860;SDS011;35761;48.826;9.238;2023-07-02T01:37:41;5.43;;;2.60;;
49860;SDS011;35761;48.826;9.238;2023-07-02T01:40:07;4.07;;;2.47;;
49860;SDS011;35761;48.826;9.238;2023-07-02T01:42:34;4.88;;;2.35;;
49860;SDS011;35761;48.826;9.238;2023-07-02T01:45:02;5.53;;;2.97;;
49860;SDS011;35761;48.826;9.238;2023-07-02T01:47:28;3.55;;;2.28;;
49860;SDS011;35761;48.826;9.238;2023-07-02T01:49:53;4.50;;;2.30;;
49860;SDS011;35761;48.826;9.238;2023-07-02T01:52:19;5.00;;;2.60;;
49860;SDS011;35761;48.826;9.238;2023-07-02T01:54:45;6.00;;;2.65;;
49860;SDS011;35761;48.826;9.238;2023-07-02T01:57:11;6.22;;;2.40;;
49860;SDS011;35761;48.826;9.238;2023-07-02T01:59:37;7.55;;;2.50;;
49860;SDS011;35761;48.826;9.238;2023-07-02T02:02:02;8.10;;;2.33;;
49860;SDS011;35761;48.826;9.238;2023-07-02T02:04:28;7.00;;;2.30;;
49860;SDS011;35761;48.826;9.238;2023-07-02T02:06:54;3.63;;;2.45;;
49860;SDS011;35761;48.826;9.238;2023-07-02T02:09:20;4.25;;;2.15;;
49860;SDS011;35761;48.826;9.238;2023-07-02T02:11:48;6.32;;;3.20;;
49860;SDS011;35761;48.826;9.238;2023-07-02T02:14:14;3.38;;;2.30;;
49860;SDS011;35761;48.826;9.238;2023-07-02T02:16:40;4.53;;;2.50;;
49860;SDS011;35761;48.826;9.238;2023-07-02T02:19:06;7.55;;;2.78;;
49860;SDS011;35761;48.826;9.238;2023-07-02T02:21:31;4.03;;;2.15;;
49860;SDS011;35761;48.826;9.238;2023-07-02T02:23:57;6.22;;;2.05;;
49860;SDS011;35761;48.826;9.238;2023-07-02T02:26:22;5.20;;;2.50;;
49860;SDS011;35761;48.826;9.238;2023-07-02T02:28:50;8.57;;;2.35;;
49860;SDS011;35761;48.826;9.238;2023-07-02T02:31:16;4.38;;;2.45;;
49860;SDS011;35761;48.826;9.238;2023-07-02T02:33:41;7.28;;;2.35;;
49860;SDS011;35761;48.826;9.238;2023-07-02T02:36:07;6.53;;;2.20;;
49860;SDS011;35761;48.826;9.238;2023-07-02T02:38:33;9.13;;;3.22;;
49860;SDS011;35761;48.826;9.238;2023-07-02T02:41:00;13.13;;;2.53;;
49860;SDS011;35761;48.826;9.238;2023-07-02T02:43:30;5.75;;;2.70;;
49860;SDS011;35761;48.826;9.238;2023-07-02T02:45:56;7.18;;;2.00;;
49860;SDS011;35761;48.826;9.238;2023-07-02T02:48:22;4.25;;;2.40;;
49860;SDS011;35761;48.826;9.238;2023-07-02T02:50:48;6.03;;;2.28;;
49860;SDS011;35761;48.826;9.238;2023-07-02T02:53:14;5.85;;;2.50;;
49860;SDS011;35761;48.826;9.238;2023-07-02T02:55:40;6.32;;;2.40;;
49860;SDS011;35761;48.826;9.238;2023-07-02T02:58:05;3.47;;;2.15;;
49860;SDS011;35761;48.826;9.238;2023-07-02T03:00:31;6.50;;;2.40;;
49860;SDS011;35761;48.826;9.238;2023-07-02T03:02:56;4.47;;;2.40;;
49860;SDS011;35761;48.826;9.238;2023-07-02T03:05:25;4.38;;;2.47;;
49860;SDS011;35761;48.826;9.238;2023-07-02T03:07:51;10.98;;;3.00;;
49860;SDS011;35761;48.826;9.238;2023-07-02T03:10:17;7.30;;;2.65;;
49860;SDS011;35761;48.826;9.238;2023-07-02T03:12:43;4.53;;;2.63;;
49860;SDS011;35761;48.826;9.238;2023-07-02T03:15:08;6.70;;;2.58;;
49860;SDS011;35761;48.826;9.238;2023-07-02T03:17:35;7.07;;;2.22;;
49860;SDS011;35761;48.826;9.238;2023-07-02T03:20:01;4.30;;;2.13;;
49860;SDS011;35761;48.826;9.238;2023-07-02T03:22:29;6.35;;;2.17;;
49860;SDS011;35761;48.826;9.238;2023-07-02T03:24:55;6.80;;;2.47;;
49860;SDS011;35761;48.826;9.238;2023-07-02T03:27:20;7.82;;;2.90;;
49860;SDS011;35761;48.826;9.238;2023-07-02T03:29:46;10.98;;;3.20;;
49860;SDS011;35761;48.826;9.238;2023-07-02T03:32:11;6.10;;;2.83;;
49860;SDS011;35761;48.826;9.238;2023-07-02T03:34:37;10.07;;;3.20;;
49860;SDS011;35761;48.826;9.238;2023-07-02T03:37:02;6.65;;;3.17;;
49860;SDS011;35761;48.826;9.238;2023-07-02T03:39:28;7.05;;;2.92;;
49860;SDS011;35761;48.826;9.238;2023-07-02T03:41:54;8.98;;;3.50;;
49860;SDS011;35761;48.826;9.238;2023-07-02T03:44:19;5.88;;;3.33;;
49860;SDS011;35761;48.826;9.238;2023-07-02T03:46:45;12.55;;;3.90;;
49860;SDS011;35761;48.826;9.238;2023-07-02T03:49:10;7.78;;;3.20;;
49860;SDS011;35761;48.826;9.238;2023-07-02T03:51:36;7.38;;;3.75;;
49860;SDS011;35761;48.826;9.238;2023-07-02T03:54:02;8.52;;;3.35;;
49860;SDS011;35761;48.826;9.238;2023-07-02T03:56:27;7.10;;;3.40;;
49860;SDS011;35761;48.826;9.238;2023-07-02T03:58:53;8.88;;;3.67;;
49860;SDS011;35761;48.826;9.238;2023-07-02T04:01:18;13.43;;;3.50;;
49860;SDS011;35761;48.826;9.238;2023-07-02T04:03:48;9.07;;;3.65;;
49860;SDS011;35761;48.826;9.238;2023-07-02T04:06:14;13.43;;;3.97;;
49860;SDS011;35761;48.826;9.238;2023-07-02T04:08:41;11.38;;;4.53;;
49860;SDS011;35761;48.826;9.238;2023-07-02T04:11:06;13.60;;;4.78;;
49860;SDS011;35761;48.826;9.238;2023-07-02T04:13:32;11.65;;;4.13;;
49860;SDS011;35761;48.826;9.238;2023-07-02T04:15:57;8.32;;;4.05;;
49860;SDS011;35761;48.826;9.238;2023-07-02T04:18:23;11.13;;;4.60;;
49860;SDS011;35761;48.826;9.238;2023-07-02T04:20:48;14.00;;;4.68;;
49860;SDS011;35761;48.826;9.238;2023-07-02T04:23:14;12.15;;;4.80;;
49860;SDS011;35761;48.826;9.238;2023-07-02T04:25:40;10.57;;;4.85;;
49860;SDS011;35761;48.826;9.238;2023-07-02T04:28:05;16.23;;;4.78;;
49860;SDS011;35761;48.826;9.238;2023-07-02T04:30:31;11.02;;;4.68;;
49860;SDS011;35761;48.826;9.238;2023-07-02T04:32:56;9.73;;;4.30;;
49860;SDS011;35761;48.826;9.238;2023-07-02T04:35:22;14.13;;;4.72;;
49860;SDS011;35761;48.826;9.238;2023-07-02T04:37:47;12.45;;;4.00;;
49860;SDS011;35761;48.826;9.238;2023-07-02T04:40:13;9.18;;;3.90;;
49860;SDS011;35761;48.826;9.238;2023-07-02T04:42:39;11.10;;;4.10;;
49860;SDS011;35761;48.826;9.238;2023-07-02T04:45:12;11.85;;;4.72;;
49860;SDS011;35761;48.826;9.238;2023-07-02T04:47:38;9.77;;;4.30;;
49860;SDS011;35761;48.826;9.238;2023-07-02T04:50:04;8.75;;;3.83;;
49860;SDS011;35761;48.826;9.238;2023-07-02T04:52:31;11.68;;;4.70;;
49860;SDS011;35761;48.826;9.238;2023-07-02T04:54:56;7.82;;;4.00;;
49860;SDS011;35761;48.826;9.238;2023-07-02T04:57:22;11.25;;;4.03;;
49860;SDS011;35761;48.826;9.238;2023-07-02T04:59:47;10.40;;;4.28;;
49860;SDS011;35761;48.826;9.238;2023-07-02T05:02:13;13.68;;;6.20;;
49860;SDS011;35761;48.826;9.238;2023-07-02T05:04:38;9.45;;;4.50;;
49860;SDS011;35761;48.826;9.238;2023-07-02T05:07:04;7.95;;;4.00;;
49860;SDS011;35761;48.826;9.238;2023-07-02T05:09:30;15.15;;;4.50;;
49860;SDS011;35761;48.826;9.238;2023-07-02T05:11:56;9.57;;;4.22;;
49860;SDS011;35761;48.826;9.238;2023-07-02T05:14:22;10.98;;;4.47;;
49860;SDS011;35761;48.826;9.238;2023-07-02T05:16:48;9.77;;;4.68;;
49860;SDS011;35761;48.826;9.238;2023-07-02T05:19:14;8.45;;;3.80;;
49860;SDS011;35761;48.826;9.238;2023-07-02T05:21:39;8.73;;;4.50;;
49860;SDS011;35761;48.826;9.238;2023-07-02T05:24:05;9.25;;;3.83;;
49860;SDS011;35761;48.826;9.238;2023-07-02T05:26:31;19.52;;;11.07;;
49860;SDS011;35761;48.826;9.238;2023-07-02T05:28:56;10.30;;;4.03;;
49860;SDS011;35761;48.826;9.238;2023-07-02T05:31:21;7.97;;;3.90;;
49860;SDS011;35761;48.826;9.238;2023-07-02T05:33:47;12.10;;;3.90;;
49860;SDS011;35761;48.826;9.238;2023-07-02T05:36:12;13.48;;;3.90;;
49860;SDS011;35761;48.826;9.238;2023-07-02T05:38:38;9.52;;;4.13;;
49860;SDS011;35761;48.826;9.238;2023-07-02T05:41:04;9.25;;;4.13;;
49860;SDS011;35761;48.826;9.238;2023-07-02T05:43:29;10.57;;;4.10;;
49860;SDS011;35761;48.826;9.238;2023-07-02T05:45:57;6.55;;;3.83;;
49860;SDS011;35761;48.826;9.238;2023-07-02T05:48:23;16.70;;;5.30;;
49860;SDS011;35761;48.826;9.238;2023-07-02T05:50:48;11.80;;;4.00;;
49860;SDS011;35761;48.826;9.238;2023-07-02T05:53:14;10.93;;;4.65;;
49860;SDS011;35761;48.826;9.238;2023-07-02T05:55:39;11.80;;;4.50;;
49860;SDS011;35761;48.826;9.238;2023-07-02T05:58:06;9.93;;;3.92;;
49860;SDS011;35761;48.826;9.238;2023-07-02T06:00:32;9.93;;;4.57;;
49860;SDS011;35761;48.826;9.238;2023-07-02T06:02:58;14.90;;;5.45;;
49860;SDS011;35761;48.826;9.238;2023-07-02T06:05:23;13.15;;;5.03;;
49860;SDS011;35761;48.826;9.238;2023-07-02T06:07:48;12.75;;;4.82;;
49860;SDS011;35761;48.826;9.238;2023-07-02T06:10:14;13.90;;;5.40;;
49860;SDS011;35761;48.826;9.238;2023-07-02T06:12:39;10.85;;;5.60;;
49860;SDS011;35761;48.826;9.238;2023-07-02T06:15:05;12.35;;;5.38;;
49860;SDS011;35761;48.826;9.238;2023-07-02T06:17:31;16.00;;;6.07;;
49860;SDS011;35761;48.826;9.238;2023-07-02T06:19:57;10.93;;;6.05;;
49860;SDS011;35761;48.826;9.238;2023-07-02T06:22:22;16.95;;;8.30;;
49860;SDS011;35761;48.826;9.238;2023-07-02T06:24:48;12.80;;;5.80;;
49860;SDS011;35761;48.826;9.238;2023-07-02T06:27:14;19.60;;;6.53;;
49860;SDS011;35761;48.826;9.238;2023-07-02T06:29:39;12.55;;;6.20;;
49860;SDS011;35761;48.826;9.238;2023-07-02T06:32:05;16.45;;;7.03;;
49860;SDS011;35761;48.826;9.238;2023-07-02T06:34:30;15.93;;;6.82;;
49860;SDS011;35761;48.826;9.238;2023-07-02T06:36:56;13.70;;;6.47;;
49860;SDS011;35761;48.826;9.238;2023-07-02T06:39:21;20.05;;;10.77;;
49860;SDS011;35761;48.826;9.238;2023-07-02T06:41:47;18.50;;;7.90;;
49860;SDS011;35761;48.826;9.238;2023-07-02T06:44:15;18.40;;;8.60;;
49860;SDS011;35761;48.826;9.238;2023-07-02T06:46:40;17.10;;;8.13;;
49860;SDS011;35761;48.826;9.238;2023-07-02T06:49:06;17.20;;;7.68;;
49860;SDS011;35761;48.826;9.238;2023-07-02T06:51:31;20.30;;;8.45;;
49860;SDS011;35761;48.826;9.238;2023-07-02T06:53:59;20.33;;;8.00;;
49860;SDS011;35761;48.826;9.238;2023-07-02T06:56:24;20.45;;;8.52;;
49860;SDS011;35761;48.826;9.238;2023-07-02T06:58:50;15.13;;;7.43;;
49860;SDS011;35761;48.826;9.238;2023-07-02T07:01:15;17.52;;;7.85;;
49860;SDS011;35761;48.826;9.238;2023-07-02T07:03:41;15.63;;;8.27;;
49860;SDS011;35761;48.826;9.238;2023-07-02T07:06:07;16.02;;;7.80;;
49860;SDS011;35761;48.826;9.238;2023-07-02T07:08:32;23.40;;;8.95;;
49860;SDS011;35761;48.826;9.238;2023-07-02T07:10:58;16.83;;;8.05;;
49860;SDS011;35761;48.826;9.238;2023-07-02T07:13:23;19.05;;;7.85;;
49860;SDS011;35761;48.826;9.238;2023-07-02T07:15:49;19.48;;;8.25;;
49860;SDS011;35761;48.826;9.238;2023-07-02T07:18:14;15.73;;;7.70;;
49860;SDS011;35761;48.826;9.238;2023-07-02T07:20:41;16.85;;;8.10;;
49860;SDS011;35761;48.826;9.238;2023-07-02T07:23:07;23.33;;;8.77;;
49860;SDS011;35761;48.826;9.238;2023-07-02T07:25:32;21.23;;;9.05;;
49860;SDS011;35761;48.826;9.238;2023-07-02T07:27:59;18.00;;;8.50;;
49860;SDS011;35761;48.826;9.238;2023-07-02T07:30:24;19.50;;;9.70;;
49860;SDS011;35761;48.826;9.238;2023-07-02T07:32:50;21.63;;;9.32;;
49860;SDS011;35761;48.826;9.238;2023-07-02T07:35:17;24.55;;;10.13;;
49860;SDS011;35761;48.826;9.238;2023-07-02T07:37:43;20.73;;;10.57;;
49860;SDS011;35761;48.826;9.238;2023-07-02T07:40:09;22.38;;;10.38;;
49860;SDS011;35761;48.826;9.238;2023-07-02T07:42:34;18.58;;;9.18;;
49860;SDS011;35761;48.826;9.238;2023-07-02T07:45:00;23.60;;;11.13;;
49860;SDS011;35761;48.826;9.238;2023-07-02T07:47:27;22.63;;;10.77;;
49860;SDS011;35761;48.826;9.238;2023-07-02T07:49:53;24.50;;;11.38;;
49860;SDS011;35761;48.826;9.238;2023-07-02T07:52:20;23.30;;;11.48;;
49860;SDS011;35761;48.826;9.238;2023-07-02T07:54:45;28.13;;;12.20;;
49860;SDS011;35761;48.826;9.238;2023-07-02T07:57:11;28.88;;;12.63;;
49860;SDS011;35761;48.826;9.238;2023-07-02T07:59:36;25.23;;;12.05;;
49860;SDS011;35761;48.826;9.238;2023-07-02T08:02:02;23.17;;;11.95;;
49860;SDS011;35761;48.826;9.238;2023-07-02T08:04:28;25.85;;;11.82;;
49860;SDS011;35761;48.826;9.238;2023-07-02T08:06:53;29.27;;;12.73;;
49860;SDS011;35761;48.826;9.238;2023-07-02T08:09:20;26.65;;;12.63;;
49860;SDS011;35761;48.826;9.238;2023-07-02T08:11:46;21.90;;;11.13;;
49860;SDS011;35761;48.826;9.238;2023-07-02T08:14:12;28.42;;;11.60;;
49860;SDS011;35761;48.826;9.238;2023-07-02T08:16:38;25.05;;;12.25;;
49860;SDS011;35761;48.826;9.238;2023-07-02T08:19:03;23.83;;;12.80;;
49860;SDS011;35761;48.826;9.238;2023-07-02T08:21:29;29.60;;;13.95;;
49860;SDS011;35761;48.826;9.238;2023-07-02T08:23:55;24.42;;;12.85;;
49860;SDS011;35761;48.826;9.238;2023-07-02T08:26:22;31.05;;;13.25;;
49860;SDS011;35761;48.826;9.238;2023-07-02T08:28:48;25.58;;;11.98;;
49860;SDS011;35761;48.826;9.238;2023-07-02T08:31:14;27.40;;;13.27;;
49860;SDS011;35761;48.826;9.238;2023-07-02T08:33:40;28.33;;;12.75;;
49860;SDS011;35761;48.826;9.238;2023-07-02T08:36:05;27.20;;;12.13;;
49860;SDS011;35761;48.826;9.238;2023-07-02T08:38:31;28.35;;;12.85;;
49860;SDS011;35761;48.826;9.238;2023-07-02T08:40:56;25.20;;;12.90;;
49860;SDS011;35761;48.826;9.238;2023-07-02T08:43:23;32.13;;;15.73;;
49860;SDS011;35761;48.826;9.238;2023-07-02T08:45:49;21.92;;;11.90;;
49860;SDS011;35761;48.826;9.238;2023-07-02T08:48:15;26.52;;;12.20;;
49860;SDS011;35761;48.826;9.238;2023-07-02T08:50:42;21.15;;;11.07;;
49860;SDS011;35761;48.826;9.238;2023-07-02T08:53:07;25.55;;;12.20;;
49860;SDS011;35761;48.826;9.238;2023-07-02T08:55:33;25.90;;;12.27;;
49860;SDS011;35761;48.826;9.238;2023-07-02T08:57:58;25.92;;;11.38;;
49860;SDS011;35761;48.826;9.238;2023-07-02T09:00:24;23.10;;;11.55;;
49860;SDS011;35761;48.826;9.238;2023-07-02T09:02:50;27.70;;;12.15;;
49860;SDS011;35761;48.826;9.238;2023-07-02T09:05:16;28.95;;;10.93;;
49860;SDS011;35761;48.826;9.238;2023-07-02T09:07:43;23.35;;;10.95;;
49860;SDS011;35761;48.826;9.238;2023-07-02T09:10:10;21.52;;;10.10;;
49860;SDS011;35761;48.826;9.238;2023-07-02T09:12:35;25.95;;;10.98;;
49860;SDS011;35761;48.826;9.238;2023-07-02T09:15:03;21.65;;;10.98;;
49860;SDS011;35761;48.826;9.238;2023-07-02T09:17:32;24.13;;;11.85;;
49860;SDS011;35761;48.826;9.238;2023-07-02T09:20:02;21.92;;;11.73;;
49860;SDS011;35761;48.826;9.238;2023-07-02T09:22:34;22.55;;;11.82;;
49860;SDS011;35761;48.826;9.238;2023-07-02T09:25:00;23.10;;;11.98;;
49860;SDS011;35761;48.826;9.238;2023-07-02T09:27:37;20.67;;;11.68;;
49860;SDS011;35761;48.826;9.238;2023-07-02T09:32:44;23.90;;;12.27;;
49860;SDS011;35761;48.826;9.238;2023-07-02T09:35:10;20.60;;;10.88;;
49860;SDS011;35761;48.826;9.238;2023-07-02T09:37:35;25.60;;;12.15;;
49860;SDS011;35761;48.826;9.238;2023-07-02T09:40:01;24.63;;;11.32;;
49860;SDS011;35761;48.826;9.238;2023-07-02T09:42:35;26.38;;;12.00;;
49860;SDS011;35761;48.826;9.238;2023-07-02T09:45:01;30.75;;;12.60;;
49860;SDS011;35761;48.826;9.238;2023-07-02T09:47:27;21.77;;;11.40;;
49860;SDS011;35761;48.826;9.238;2023-07-02T09:49:55;23.00;;;12.00;;
49860;SDS011;35761;48.826;9.238;2023-07-02T09:52:22;21.33;;;11.75;;
49860;SDS011;35761;48.826;9.238;2023-07-02T09:54:48;23.75;;;12.15;;
49860;SDS011;35761;48.826;9.238;2023-07-02T09:57:14;23.92;;;12.15;;
49860;SDS011;35761;48.826;9.238;2023-07-02T09:59:40;21.13;;;11.85;;
49860;SDS011;35761;48.826;9.238;2023-07-02T10:02:05;25.92;;;12.45;;
49860;SDS011;35761;48.826;9.238;2023-07-02T10:04:41;19.30;;;11.38;;
49860;SDS011;35761;48.826;9.238;2023-07-02T10:07:07;18.95;;;11.52;;
49860;SDS011;35761;48.826;9.238;2023-07-02T10:09:37;19.77;;;11.38;;
49860;SDS011;35761;48.826;9.238;2023-07-02T10:12:14;25.98;;;11.45;;
49860;SDS011;35761;48.826;9.238;2023-07-02T10:14:47;25.80;;;11.63;;
49860;SDS011;35761;48.826;9.238;2023-07-02T10:20:18;21.90;;;12.40;;
49860;SDS011;35761;48.826;9.238;2023-07-02T10:22:44;23.75;;;11.80;;
49860;SDS011;35761;48.826;9.238;2023-07-02T10:25:28;29.77;;;11.75;;
49860;SDS011;35761;48.826;9.238;2023-07-02T10:27:54;20.60;;;11.98;;
49860;SDS011;35761;48.826;9.238;2023-07-02T10:30:30;26.10;;;11.73;;
49860;SDS011;35761;48.826;9.238;2023-07-02T10:33:08;18.88;;;11.05;;
49860;SDS011;35761;48.826;9.238;2023-07-02T10:35:37;22.63;;;11.63;;
49860;SDS011;35761;48.826;9.238;2023-07-02T10:38:04;24.20;;;12.20;;
49860;SDS011;35761;48.826;9.238;2023-07-02T10:40:31;21.10;;;11.95;;
49860;SDS011;35761;48.826;9.238;2023-07-02T10:42:58;28.13;;;11.55;;
49860;SDS011;35761;48.826;9.238;2023-07-02T10:45:31;24.92;;;11.52;;
49860;SDS011;35761;48.826;9.238;2023-07-02T10:47:58;23.60;;;11.60;;
49860;SDS011;35761;48.826;9.238;2023-07-02T10:50:23;23.58;;;10.75;;
49860;SDS011;35761;48.826;9.238;2023-07-02T10:52:50;20.02;;;11.23;;
49860;SDS011;35761;48.826;9.238;2023-07-02T10:55:23;21.33;;;11.90;;
49860;SDS011;35761;48.826;9.238;2023-07-02T10:58:02;21.73;;;11.67;;
49860;SDS011;35761;48.826;9.238;2023-07-02T11:00:29;24.17;;;12.20;;
49860;SDS011;35761;48.826;9.238;2023-07-02T11:02:55;23.65;;;11.70;;
49860;SDS011;35761;48.826;9.238;2023-07-02T11:05:20;20.52;;;12.57;;
49860;SDS011;35761;48.826;9.238;2023-07-02T11:07:46;23.92;;;12.88;;
49860;SDS011;35761;48.826;9.238;2023-07-02T11:10:17;24.75;;;13.73;;
49860;SDS011;35761;48.826;9.238;2023-07-02T11:12:43;27.40;;;13.10;;
49860;SDS011;35761;48.826;9.238;2023-07-02T11:15:09;22.58;;;12.40;;
49860;SDS011;35761;48.826;9.238;2023-07-02T11:17:37;22.33;;;12.38;;
49860;SDS011;35761;48.826;9.238;2023-07-02T11:20:03;25.00;;;12.00;;
49860;SDS011;35761;48.826;9.238;2023-07-02T11:22:32;24.27;;;11.75;;
49860;SDS011;35761;48.826;9.238;2023-07-02T11:25:19;19.98;;;11.93;;
49860;SDS011;35761;48.826;9.238;2023-07-02T11:27:47;20.48;;;12.05;;
49860;SDS011;35761;48.826;9.238;2023-07-02T11:30:12;23.95;;;11.32;;
49860;SDS011;35761;48.826;9.238;2023-07-02T11:32:52;21.42;;;12.05;;
49860;SDS011;35761;48.826;9.238;2023-07-02T11:35:18;20.33;;;11.50;;
49860;SDS011;35761;48.826;9.238;2023-07-02T11:37:44;17.75;;;10.55;;
49860;SDS011;35761;48.826;9.238;2023-07-02T11:40:11;22.40;;;10.85;;
49860;SDS011;35761;48.826;9.238;2023-07-02T11:42:37;18.38;;;11.98;;
49860;SDS011;35761;48.826;9.238;2023-07-02T11:45:03;18.52;;;11.10;;
49860;SDS011;35761;48.826;9.238;2023-07-02T11:47:29;22.35;;;11.52;;
49860;SDS011;35761;48.826;9.238;2023-07-02T11:49:54;16.38;;;11.38;;
49860;SDS011;35761;48.826;9.238;2023-07-02T11:52:20;16.92;;;10.75;;
49860;SDS011;35761;48.826;9.238;2023-07-02T11:54:48;19.40;;;11.43;;
49860;SDS011;35761;48.826;9.238;2023-07-02T11:57:14;28.08;;;12.27;;
49860;SDS011;35761;48.826;9.238;2023-07-02T11:59:40;18.23;;;11.63;;
49860;SDS011;35761;48.826;9.238;2023-07-02T12:02:06;21.92;;;12.88;;
49860;SDS011;35761;48.826;9.238;2023-07-02T12:04:31;20.23;;;11.35;;
49860;SDS011;35761;48.826;9.238;2023-07-02T12:06:57;26.25;;;13.27;;
49860;SDS011;35761;48.826;9.238;2023-07-02T12:09:22;22.85;;;13.05;;
49860;SDS011;35761;48.826;9.238;2023-07-02T12:11:48;24.42;;;12.27;;
49860;SDS011;35761;48.826;9.238;2023-07-02T12:14:14;19.33;;;11.85;;
49860;SDS011;35761;48.826;9.238;2023-07-02T12:16:39;23.67;;;12.52;;
49860;SDS011;35761;48.826;9.238;2023-07-02T12:19:05;20.35;;;12.73;;
49860;SDS011;35761;48.826;9.238;2023-07-02T12:21:31;25.05;;;12.32;;
49860;SDS011;35761;48.826;9.238;2023-07-02T12:23:56;22.17;;;12.60;;
49860;SDS011;35761;48.826;9.238;2023-07-02T12:26:22;22.33;;;11.50;;
49860;SDS011;35761;48.826;9.238;2023-07-02T12:28:47;21.08;;;12.38;;
49860;SDS011;35761;48.826;9.238;2023-07-02T12:31:13;20.40;;;12.18;;
49860;SDS011;35761;48.826;9.238;2023-07-02T12:33:39;22.50;;;12.07;;
49860;SDS011;35761;48.826;9.238;2023-07-02T12:36:05;20.73;;;11.57;;
49860;SDS011;35761;48.826;9.238;2023-07-02T12:38:30;20.60;;;13.07;;
49860;SDS011;35761;48.826;9.238;2023-07-02T12:40:56;23.17;;;12.05;;
49860;SDS011;35761;48.826;9.238;2023-07-02T12:43:21;19.77;;;12.18;;
49860;SDS011;35761;48.826;9.238;2023-07-02T12:45:47;22.02;;;12.80;;
49860;SDS011;35761;48.826;9.238;2023-07-02T12:48:12;23.80;;;12.40;;
49860;SDS011;35761;48.826;9.238;2023-07-02T12:50:38;21.73;;;13.73;;
49860;SDS011;35761;48.826;9.238;2023-07-02T12:53:04;21.05;;;11.90;;
49860;SDS011;35761;48.826;9.238;2023-07-02T12:55:30;20.42;;;12.05;;
49860;SDS011;35761;48.826;9.238;2023-07-02T12:57:56;25.27;;;14.48;;
49860;SDS011;35761;48.826;9.238;2023-07-02T13:00:22;23.17;;;12.02;;
49860;SDS011;35761;48.826;9.238;2023-07-02T13:02:48;19.60;;;11.75;;
49860;SDS011;35761;48.826;9.238;2023-07-02T13:05:13;18.40;;;12.13;;
49860;SDS011;35761;48.826;9.238;2023-07-02T13:07:39;19.63;;;12.02;;
49860;SDS011;35761;48.826;9.238;2023-07-02T13:10:05;20.80;;;11.80;;
49860;SDS011;35761;48.826;9.238;2023-07-02T13:12:31;18.02;;;12.00;;
49860;SDS011;35761;48.826;9.238;2023-07-02T13:14:57;23.05;;;12.63;;
49860;SDS011;35761;48.826;9.238;2023-07-02T13:17:22;19.85;;;12.27;;
49860;SDS011;35761;48.826;9.238;2023-07-02T13:19:48;24.98;;;13.18;;
49860;SDS011;35761;48.826;9.238;2023-07-02T13:22:14;19.70;;;13.75;;
49860;SDS011;35761;48.826;9.238;2023-07-02T13:24:39;19.52;;;12.85;;
49860;SDS011;35761;48.826;9.238;2023-07-02T13:27:07;21.27;;;11.98;;
49860;SDS011;35761;48.826;9.238;2023-07-02T13:29:35;17.85;;;11.38;;
49860;SDS011;35761;48.826;9.238;2023-07-02T13:32:00;19.65;;;12.05;;
49860;SDS011;35761;48.826;9.238;2023-07-02T13:34:26;21.85;;;12.13;;
49860;SDS011;35761;48.826;9.238;2023-07-02T13:36:51;25.40;;;13.15;;
49860;SDS011;35761;48.826;9.238;2023-07-02T13:39:17;24.10;;;13.13;;
49860;SDS011;35761;48.826;9.238;2023-07-02T13:41:42;26.05;;;13.25;;
49860;SDS011;35761;48.826;9.238;2023-07-02T13:44:08;21.67;;;12.82;;
49860;SDS011;35761;48.826;9.238;2023-07-02T13:46:33;20.15;;;12.50;;
49860;SDS011;35761;48.826;9.238;2023-07-02T13:48:59;20.23;;;12.52;;
49860;SDS011;35761;48.826;9.238;2023-07-02T13:51:24;20.08;;;12.15;;
49860;SDS011;35761;48.826;9.238;2023-07-02T13:53:50;24.83;;;12.27;;
49860;SDS011;35761;48.826;9.238;2023-07-02T13:56:15;19.48;;;11.98;;
49860;SDS011;35761;48.826;9.238;2023-07-02T13:58:58;18.35;;;11.73;;
49860;SDS011;35761;48.826;9.238;2023-07-02T14:01:24;19.40;;;12.02;;
49860;SDS011;35761;48.826;9.238;2023-07-02T14:03:50;19.92;;;12.43;;
49860;SDS011;35761;48.826;9.238;2023-07-02T14:06:15;19.27;;;12.23;;
49860;SDS011;35761;48.826;9.238;2023-07-02T14:08:41;18.75;;;12.27;;
49860;SDS011;35761;48.826;9.238;2023-07-02T14:11:07;17.58;;;11.55;;
49860;SDS011;35761;48.826;9.238;2023-07-02T14:13:33;16.33;;;11.25;;
49860;SDS011;35761;48.826;9.238;2023-07-02T14:15:59;20.52;;;12.40;;
49860;SDS011;35761;48.826;9.238;2023-07-02T14:18:24;21.33;;;12.13;;
49860;SDS011;35761;48.826;9.238;2023-07-02T14:20:50;20.88;;;11.52;;
49860;SDS011;35761;48.826;9.238;2023-07-02T14:23:16;22.90;;;13.90;;
49860;SDS011;35761;48.826;9.238;2023-07-02T14:25:44;19.58;;;11.18;;
49860;SDS011;35761;48.826;9.238;2023-07-02T14:28:11;24.58;;;12.27;;
49860;SDS011;35761;48.826;9.238;2023-07-02T14:30:39;19.55;;;11.98;;
49860;SDS011;35761;48.826;9.238;2023-07-02T14:33:09;19.83;;;11.45;;
49860;SDS011;35761;48.826;9.238;2023-07-02T14:35:36;17.45;;;11.70;;